首页
METAR-TAF:

METAR-TAF

机场 :

瓦爾納, 保加利亚

纬度: 43-12N, 经度: 027-55E, 海拔: 41米

当前天气观测

该预报发布于20分钟前的16:00 UTC
风速7节,风向东南
温度 20°C
湿度 64%
气压 1013 hPa
能见度10公里或以上
1500米以下无云,无积雨云

METAR: LBWN 231600Z 13007KT CAVOK 20/13 Q1013 NOSIG

时间: 19:20 (16:20 UTC)

预报

该预报发布于5小时和20分钟前的11:00 UTC
预报有效从23日的 12点(UTC)到 24日的 12点(UTC)
风速12节,风向东南
能见度10公里或以上
散云层高于4500英尺
成为
从 23日的 19点(UTC)到 23日的 21点(UTC)
风速4节,风向多变
散云层高于1500英尺
散云层高于4000英尺
几率 40% :
短暂存在
从 23日的 22点(UTC)到 24日的 03点(UTC)
能見度: 5000
散云层高于1000英尺
多云层高于4500英尺

TAF: LBWN 231100Z 2312/2412 13012KT 9999 SCT045 BECMG 2319/2321 VRB04KT SCT015 SCT040 PROB40 TEMPO 2322/2403 5000 RA SCT010 BKN045

超过4000个机场的气象观测和天气预报(METAR&TAF报告)。

可查询的气象台以黄色和红色小点在地图上表示。

将鼠标移到小点上方,可查看气象台名称。

然后点击查看天气观测和预报。

如需切换地图:点击带黑十字的绿色按钮放大地图;点击带横线的绿色按钮缩小地图;或者点击绿色箭头查看邻近地区的地图。


METAR-TAF: